createdAt,value
2017-11-30T00:00:32.131Z,62.70
2017-11-30T00:03:00.444Z,62.10
2017-11-30T00:05:28.748Z,62.40
2017-11-30T00:07:57.043Z,62.50
2017-11-30T00:10:25.377Z,63.30
2017-11-30T00:12:54.530Z,63.90
2017-11-30T00:15:22.092Z,64.50
2017-11-30T00:17:50.424Z,64.50
2017-11-30T00:20:18.726Z,64.10
2017-11-30T00:22:48.009Z,64.30
2017-11-30T00:25:15.564Z,64.40
2017-11-30T00:27:43.859Z,64.40
2017-11-30T00:30:12.184Z,64.40
2017-11-30T00:32:40.480Z,64.30
2017-11-30T00:35:08.815Z,63.60
2017-11-30T00:37:37.141Z,63.40
2017-11-30T00:40:05.759Z,63.20
2017-11-30T00:42:45.943Z,63.20
2017-11-30T00:45:13.494Z,62.80
2017-11-30T00:47:42.343Z,62.60
2017-11-30T00:50:09.944Z,62.80
2017-11-30T00:52:38.235Z,64.70
2017-11-30T00:55:06.600Z,62.70
2017-11-30T00:57:34.960Z,62.50
2017-11-30T01:00:03.383Z,62.50
2017-11-30T01:02:31.678Z,62.80
2017-11-30T01:04:59.977Z,63.30
2017-11-30T01:07:28.315Z,63.20
2017-11-30T01:09:56.636Z,63.30
2017-11-30T01:12:24.957Z,63.40
2017-11-30T01:14:53.260Z,64.00
2017-11-30T01:17:22.111Z,63.50
2017-11-30T01:19:50.053Z,62.80
2017-11-30T01:22:18.638Z,62.80
2017-11-30T01:24:46.930Z,62.50
2017-11-30T01:27:15.253Z,62.00
2017-11-30T01:29:43.572Z,62.30
2017-11-30T01:32:11.962Z,62.30
2017-11-30T01:34:40.267Z,62.40
2017-11-30T01:37:08.634Z,62.10
2017-11-30T01:39:36.932Z,61.40
2017-11-30T01:42:05.315Z,61.80
2017-11-30T01:44:33.828Z,61.50
2017-11-30T01:47:01.812Z,61.60
2017-11-30T01:49:30.421Z,61.50
2017-11-30T01:51:58.743Z,61.50
2017-11-30T01:54:27.131Z,62.00
2017-11-30T01:56:55.325Z,62.30
2017-11-30T01:59:23.624Z,61.90
2017-11-30T02:01:51.923Z,61.60
2017-11-30T02:04:20.212Z,61.50
2017-11-30T02:06:48.576Z,61.90
2017-11-30T02:09:16.863Z,62.10
2017-11-30T02:11:45.183Z,62.30
2017-11-30T02:14:13.480Z,62.50
2017-11-30T02:16:41.031Z,62.00
2017-11-30T02:19:08.952Z,62.50
2017-11-30T02:21:37.274Z,62.70
2017-11-30T02:24:06.456Z,62.20
2017-11-30T02:26:33.980Z,62.20
2017-11-30T02:29:02.380Z,61.90
2017-11-30T02:31:31.026Z,60.90
2017-11-30T02:33:59.505Z,60.80
2017-11-30T02:36:28.135Z,61.70
2017-11-30T02:38:55.678Z,61.40
2017-11-30T02:41:23.978Z,62.00
2017-11-30T02:43:52.300Z,61.70
2017-11-30T02:46:21.454Z,61.20
2017-11-30T02:48:49.016Z,60.80
2017-11-30T02:51:17.336Z,61.10
2017-11-30T02:53:45.683Z,60.50
2017-11-30T02:56:13.987Z,61.80
2017-11-30T02:58:42.351Z,61.90
2017-11-30T03:01:10.638Z,60.70
2017-11-30T03:03:38.959Z,60.50
2017-11-30T03:06:07.244Z,59.80
2017-11-30T03:08:35.742Z,59.80
2017-11-30T03:11:04.079Z,60.50
2017-11-30T03:13:32.604Z,60.70
2017-11-30T03:16:01.359Z,60.70
2017-11-30T03:18:32.592Z,61.50
2017-11-30T03:21:00.110Z,61.20
2017-11-30T03:23:28.428Z,61.50
2017-11-30T03:25:56.714Z,61.90
2017-11-30T03:28:24.249Z,61.60
2017-11-30T03:30:53.430Z,60.90
2017-11-30T03:33:21.756Z,61.00
2017-11-30T03:35:50.125Z,60.20
2017-11-30T03:38:18.552Z,60.70
2017-11-30T03:40:47.579Z,60.60
2017-11-30T03:43:15.411Z,60.30
2017-11-30T03:45:43.703Z,60.70
2017-11-30T03:48:12.014Z,60.90
2017-11-30T03:50:40.325Z,60.90
2017-11-30T03:53:08.651Z,61.10
2017-11-30T03:55:36.943Z,60.80
2017-11-30T03:58:06.362Z,61.60
2017-11-30T04:00:33.882Z,62.10
2017-11-30T04:03:02.205Z,62.00
2017-11-30T04:05:30.130Z,62.00
2017-11-30T04:07:58.457Z,61.00
2017-11-30T04:10:26.376Z,60.10
2017-11-30T04:12:54.674Z,61.20
2017-11-30T04:15:22.268Z,60.80
2017-11-30T04:17:50.561Z,61.10
2017-11-30T04:20:19.153Z,60.70
2017-11-30T04:22:47.451Z,60.80
2017-11-30T04:25:15.807Z,60.90
2017-11-30T04:27:44.886Z,60.70
2017-11-30T04:30:12.551Z,60.90
2017-11-30T04:32:40.469Z,60.90
2017-11-30T04:35:08.024Z,61.20
2017-11-30T04:37:35.944Z,61.40
2017-11-30T04:40:04.288Z,61.60
2017-11-30T04:42:33.439Z,61.50
2017-11-30T04:45:01.011Z,61.20
2017-11-30T04:47:29.332Z,61.30
2017-11-30T04:49:57.646Z,61.40
2017-11-30T04:52:25.941Z,61.20
2017-11-30T04:54:54.383Z,61.10
2017-11-30T04:57:22.659Z,61.20
2017-11-30T04:59:51.227Z,61.10
2017-11-30T05:02:19.684Z,61.40
2017-11-30T05:04:47.752Z,61.90
2017-11-30T05:07:16.904Z,61.80
2017-11-30T05:09:44.535Z,62.20
2017-11-30T05:12:12.842Z,62.20
2017-11-30T05:14:41.148Z,62.50
2017-11-30T05:17:09.445Z,62.50
2017-11-30T05:19:37.764Z,62.80
2017-11-30T05:22:06.071Z,62.80
2017-11-30T05:24:34.459Z,62.50
2017-11-30T05:27:02.747Z,62.70
2017-11-30T05:29:31.268Z,63.10
2017-11-30T05:31:59.580Z,63.00
2017-11-30T05:34:28.132Z,62.90
2017-11-30T05:36:59.063Z,64.40
2017-11-30T05:39:27.351Z,64.50
2017-11-30T05:41:56.595Z,64.80
2017-11-30T05:44:26.354Z,63.80
2017-11-30T05:46:53.928Z,63.80
2017-11-30T05:49:21.911Z,63.80
2017-11-30T05:51:50.256Z,63.80
2017-11-30T05:54:18.539Z,64.00
2017-11-30T05:56:47.355Z,63.50
2017-11-30T05:59:15.274Z,62.90
2017-11-30T06:01:43.795Z,63.40
2017-11-30T06:04:16.331Z,63.20
2017-11-30T06:06:44.771Z,63.70
2017-11-30T06:09:12.679Z,63.40
2017-11-30T06:11:40.998Z,63.60
2017-11-30T06:14:08.865Z,63.50
2017-11-30T06:16:36.416Z,63.20
2017-11-30T06:19:04.707Z,63.50
2017-11-30T06:21:33.058Z,63.40
2017-11-30T06:24:02.075Z,63.50
2017-11-30T06:26:30.016Z,63.10
2017-11-30T06:28:58.304Z,62.80
2017-11-30T06:31:27.551Z,62.50
2017-11-30T06:33:55.839Z,62.80
2017-11-30T06:36:24.162Z,63.40
2017-11-30T06:38:51.735Z,62.70
2017-11-30T06:41:20.621Z,62.80
2017-11-30T06:43:49.525Z,63.40
2017-11-30T06:46:17.955Z,62.60
2017-11-30T06:48:46.248Z,62.80
2017-11-30T06:51:14.572Z,62.60
2017-11-30T06:53:42.857Z,62.60
2017-11-30T06:56:11.288Z,62.70
2017-11-30T06:58:39.593Z,62.60
2017-11-30T07:01:07.919Z,62.50
2017-11-30T07:03:36.408Z,62.70
2017-11-30T07:06:04.703Z,62.20
2017-11-30T07:08:33.012Z,62.60
2017-11-30T07:11:01.335Z,62.60
2017-11-30T07:13:29.673Z,62.50
2017-11-30T07:15:58.036Z,61.80
2017-11-30T07:18:28.167Z,62.00
2017-11-30T07:20:56.371Z,62.00
2017-11-30T07:23:24.322Z,62.40
2017-11-30T07:25:53.403Z,62.60
2017-11-30T07:28:21.335Z,62.20
2017-11-30T07:30:49.264Z,62.50
2017-11-30T07:33:16.804Z,62.40
2017-11-30T07:35:44.798Z,62.30
2017-11-30T07:38:14.733Z,62.40
2017-11-30T07:40:42.679Z,62.10
2017-11-30T07:43:11.059Z,62.00
2017-11-30T07:45:39.400Z,62.20
2017-11-30T07:48:07.850Z,62.10
2017-11-30T07:50:36.894Z,62.50
2017-11-30T07:53:04.435Z,61.90
2017-11-30T07:55:32.960Z,62.20
2017-11-30T07:58:01.275Z,61.50
2017-11-30T08:00:30.702Z,61.10
2017-11-30T08:02:59.033Z,61.30
2017-11-30T08:05:26.555Z,61.00
2017-11-30T08:07:55.454Z,61.10
2017-11-30T08:10:22.978Z,60.80
2017-11-30T08:12:51.295Z,61.20
2017-11-30T08:15:19.644Z,61.50
2017-11-30T08:17:47.948Z,61.30
2017-11-30T08:20:16.273Z,61.20
2017-11-30T08:22:49.111Z,60.50
2017-11-30T08:25:17.050Z,60.30
2017-11-30T08:27:46.087Z,60.20
2017-11-30T08:30:14.071Z,61.00
2017-11-30T08:32:41.981Z,60.60
2017-11-30T08:35:09.651Z,60.50
2017-11-30T08:37:37.254Z,60.60
2017-11-30T08:40:05.564Z,60.50
2017-11-30T08:42:33.855Z,60.90
2017-11-30T08:45:01.630Z,60.50
2017-11-30T08:47:29.336Z,58.40
2017-11-30T08:49:57.654Z,61.30
2017-11-30T08:52:25.944Z,61.20
2017-11-30T08:54:54.479Z,61.60
2017-11-30T08:57:22.769Z,61.10
2017-11-30T08:59:51.668Z,61.30
2017-11-30T09:02:19.962Z,61.10
2017-11-30T09:04:47.658Z,60.10
2017-11-30T09:07:16.427Z,60.20
2017-11-30T09:09:44.395Z,61.10
2017-11-30T09:12:12.684Z,61.20
2017-11-30T09:14:40.983Z,60.70
2017-11-30T09:17:09.917Z,60.00
2017-11-30T09:19:37.887Z,60.90
2017-11-30T09:22:06.255Z,61.00
2017-11-30T09:24:34.605Z,60.00
2017-11-30T09:27:03.021Z,59.60
2017-11-30T09:29:31.293Z,59.60
2017-11-30T09:31:59.620Z,58.40
2017-11-30T09:34:27.936Z,59.70
2017-11-30T09:36:56.231Z,60.20
2017-11-30T09:39:24.544Z,61.00
2017-11-30T09:41:53.770Z,61.10
2017-11-30T09:44:22.119Z,62.40
2017-11-30T09:46:49.671Z,62.70
2017-11-30T09:49:17.981Z,62.70
2017-11-30T09:51:46.371Z,63.00
2017-11-30T09:54:14.688Z,62.20
2017-11-30T09:56:43.969Z,62.10
2017-11-30T09:59:11.483Z,62.40
2017-11-30T10:01:39.412Z,63.10
2017-11-30T10:04:07.704Z,63.00
2017-11-30T10:06:36.778Z,63.40
2017-11-30T10:09:04.301Z,62.40
2017-11-30T10:11:32.612Z,63.30
2017-11-30T10:14:00.131Z,63.80
2017-11-30T10:16:28.064Z,64.10
2017-11-30T10:18:57.099Z,65.30
2017-11-30T10:21:24.681Z,63.80
2017-11-30T10:23:52.205Z,63.80
2017-11-30T10:26:20.156Z,63.80
2017-11-30T10:28:48.438Z,63.30
2017-11-30T10:31:16.759Z,62.40
2017-11-30T10:33:45.080Z,62.00
2017-11-30T10:36:13.387Z,61.40
2017-11-30T10:38:43.250Z,62.10
2017-11-30T10:41:11.555Z,61.70
2017-11-30T10:43:39.847Z,61.70
2017-11-30T10:46:08.906Z,62.20
2017-11-30T10:48:36.464Z,62.10
2017-11-30T10:51:04.815Z,61.50
2017-11-30T10:53:33.357Z,61.50
2017-11-30T10:56:02.407Z,61.20
2017-11-30T10:58:29.959Z,60.70
2017-11-30T11:00:59.094Z,60.30
2017-11-30T11:03:27.389Z,61.30
2017-11-30T11:05:54.936Z,60.40
2017-11-30T11:08:23.278Z,60.20
2017-11-30T11:10:51.709Z,59.60
2017-11-30T11:13:20.814Z,59.50
2017-11-30T11:15:48.340Z,58.90
2017-11-30T11:18:16.714Z,58.60
2017-11-30T11:20:45.055Z,58.40
2017-11-30T11:23:13.369Z,59.10
2017-11-30T11:25:41.747Z,59.70
2017-11-30T11:28:10.129Z,60.20
2017-11-30T11:30:41.506Z,59.80
2017-11-30T11:33:09.427Z,60.10
2017-11-30T11:35:37.751Z,59.50
2017-11-30T11:38:06.850Z,59.30
2017-11-30T11:40:34.376Z,59.10
2017-11-30T11:43:02.680Z,59.20
2017-11-30T11:45:31.100Z,58.90
2017-11-30T11:48:00.151Z,58.60
2017-11-30T11:50:27.673Z,59.30
2017-11-30T11:52:55.978Z,59.60
2017-11-30T11:55:24.456Z,59.90
2017-11-30T11:57:52.755Z,59.90
2017-11-30T12:00:21.051Z,59.20
2017-11-30T12:02:49.372Z,58.80
2017-11-30T12:05:17.657Z,59.10
2017-11-30T12:07:45.194Z,58.30
2017-11-30T12:10:13.111Z,59.00
2017-11-30T12:12:41.419Z,58.00
2017-11-30T12:15:09.731Z,57.20
2017-11-30T12:17:38.038Z,57.90
2017-11-30T12:20:06.383Z,57.60
2017-11-30T12:22:34.722Z,57.50
2017-11-30T12:25:03.000Z,57.30
2017-11-30T12:27:30.534Z,55.70
2017-11-30T12:29:58.442Z,55.40
2017-11-30T12:32:26.734Z,55.60
2017-11-30T12:34:55.035Z,54.90
2017-11-30T12:37:23.386Z,55.90
2017-11-30T12:39:51.676Z,56.70
2017-11-30T12:42:20.008Z,54.50
2017-11-30T12:44:47.603Z,56.30
2017-11-30T12:47:15.523Z,55.80
2017-11-30T12:49:43.819Z,55.90
2017-11-30T12:52:12.118Z,56.20
2017-11-30T12:54:40.435Z,56.10
2017-11-30T12:59:37.100Z,58.10
2017-11-30T13:02:06.628Z,58.70
2017-11-30T13:04:34.925Z,58.90
2017-11-30T13:07:03.262Z,59.40
2017-11-30T13:09:31.185Z,59.80
2017-11-30T13:11:59.090Z,59.50
2017-11-30T13:14:28.089Z,59.70
2017-11-30T13:16:56.008Z,58.80
2017-11-30T13:19:25.044Z,56.90
2017-11-30T13:21:52.608Z,56.20
2017-11-30T13:24:22.723Z,56.60
2017-11-30T13:26:50.630Z,56.60
2017-11-30T13:29:18.943Z,56.00
2017-11-30T13:31:47.382Z,57.20
2017-11-30T13:34:15.681Z,57.60
2017-11-30T13:36:44.008Z,57.20
2017-11-30T13:39:13.707Z,56.80
2017-11-30T13:41:42.124Z,57.50
2017-11-30T13:44:10.433Z,57.70
2017-11-30T13:46:39.527Z,58.10
2017-11-30T13:49:09.429Z,58.80
2017-11-30T13:51:37.001Z,59.10
2017-11-30T13:54:04.958Z,59.20
2017-11-30T13:56:32.467Z,59.80
2017-11-30T13:59:00.419Z,60.50
2017-11-30T14:01:28.703Z,59.80
2017-11-30T14:03:57.002Z,59.70
2017-11-30T14:06:25.306Z,59.10
2017-11-30T14:08:54.659Z,59.30
2017-11-30T14:11:22.194Z,59.30
2017-11-30T14:13:50.484Z,59.10
2017-11-30T14:16:18.809Z,58.70
2017-11-30T14:18:47.089Z,58.50
2017-11-30T14:21:15.390Z,58.70
2017-11-30T14:23:43.697Z,59.70
2017-11-30T14:26:12.016Z,59.90
2017-11-30T14:28:40.296Z,59.90
2017-11-30T14:31:08.596Z,60.00
2017-11-30T14:33:36.138Z,59.60
2017-11-30T14:36:04.069Z,59.30
2017-11-30T14:38:32.356Z,59.00
2017-11-30T14:41:00.778Z,58.40
2017-11-30T14:43:29.062Z,57.40
2017-11-30T14:45:57.366Z,58.00
2017-11-30T14:48:25.681Z,57.30
2017-11-30T14:50:53.981Z,57.40
2017-11-30T14:53:22.263Z,56.80
2017-11-30T14:55:50.850Z,57.60
2017-11-30T14:58:19.127Z,57.60
2017-11-30T15:00:47.454Z,57.20
2017-11-30T15:03:15.730Z,56.80
2017-11-30T15:05:44.039Z,56.60
2017-11-30T15:08:12.414Z,56.90
2017-11-30T15:10:40.733Z,57.20
2017-11-30T15:13:09.043Z,57.00
2017-11-30T15:15:37.342Z,56.30
2017-11-30T15:18:05.643Z,57.30
2017-11-30T15:20:33.969Z,57.40
2017-11-30T15:23:02.986Z,58.20
2017-11-30T15:25:30.950Z,57.20
2017-11-30T15:27:59.233Z,57.20
2017-11-30T15:30:27.589Z,57.50
2017-11-30T15:32:55.867Z,57.50
2017-11-30T15:35:24.979Z,58.00
2017-11-30T15:37:52.501Z,57.70
2017-11-30T15:40:20.801Z,55.10
2017-11-30T15:42:49.819Z,57.80
2017-11-30T15:45:17.415Z,57.40
2017-11-30T15:47:45.713Z,57.70
2017-11-30T15:50:13.994Z,58.10
2017-11-30T15:52:42.298Z,57.90
2017-11-30T15:55:09.821Z,57.30
2017-11-30T16:00:20.066Z,58.50
2017-11-30T16:02:48.414Z,58.80
2017-11-30T16:05:16.690Z,58.70
2017-11-30T16:07:45.715Z,58.80
2017-11-30T16:10:13.986Z,59.00
2017-11-30T16:12:41.567Z,59.20
2017-11-30T16:15:09.082Z,58.90
2017-11-30T16:17:37.014Z,58.90
2017-11-30T16:20:05.293Z,58.90
2017-11-30T16:22:33.710Z,58.60
2017-11-30T16:25:01.992Z,57.90
2017-11-30T16:27:30.282Z,58.00
2017-11-30T16:29:58.583Z,57.50
2017-11-30T16:32:27.618Z,57.80
2017-11-30T16:34:55.551Z,58.00
2017-11-30T16:37:23.862Z,58.60
2017-11-30T16:39:52.198Z,57.00
2017-11-30T16:42:20.506Z,57.60
2017-11-30T16:44:48.789Z,57.60
2017-11-30T16:47:17.092Z,57.70
2017-11-30T16:49:47.430Z,57.40
2017-11-30T16:52:14.978Z,57.30
2017-11-30T16:54:43.286Z,57.30
2017-11-30T16:57:10.822Z,58.10
2017-11-30T16:59:38.864Z,58.00
2017-11-30T17:02:07.175Z,57.40
2017-11-30T17:04:35.459Z,57.70
2017-11-30T17:07:04.334Z,57.90
2017-11-30T17:09:33.510Z,58.70
2017-11-30T17:12:01.417Z,58.00
2017-11-30T17:14:29.693Z,58.90
2017-11-30T17:16:57.611Z,60.00
2017-11-30T17:19:25.995Z,60.90
2017-11-30T18:01:46.318Z,64.50
2017-11-30T18:04:14.241Z,63.40
2017-11-30T18:06:42.543Z,63.10
2017-11-30T18:09:10.965Z,62.80
2017-11-30T18:11:39.245Z,63.10
2017-11-30T18:14:07.545Z,63.30
2017-11-30T18:16:35.836Z,63.60
2017-11-30T18:19:04.161Z,63.70
2017-11-30T18:21:32.614Z,64.00
2017-11-30T18:24:01.660Z,64.50
2017-11-30T18:26:29.225Z,63.70
2017-11-30T18:28:57.562Z,63.80
2017-11-30T18:31:26.025Z,63.30
2017-11-30T18:33:55.078Z,63.70
2017-11-30T18:36:22.602Z,63.00
2017-11-30T18:38:50.905Z,63.00
2017-11-30T18:41:19.196Z,63.30
2017-11-30T18:43:47.504Z,63.10
2017-11-30T18:46:15.046Z,63.10
2017-11-30T18:48:43.494Z,62.90
2017-11-30T18:51:11.449Z,63.00
2017-11-30T18:53:39.943Z,63.10
2017-11-30T18:56:07.981Z,63.20
2017-11-30T18:58:36.306Z,63.10
2017-11-30T19:01:04.852Z,63.10
2017-11-30T19:03:33.166Z,63.90
2017-11-30T19:06:01.485Z,64.20
2017-11-30T19:08:29.780Z,63.70
2017-11-30T19:10:58.093Z,63.80
2017-11-30T19:13:27.318Z,63.50
2017-11-30T19:15:56.153Z,63.50
2017-11-30T19:18:24.436Z,63.50
2017-11-30T19:20:52.778Z,63.60
2017-11-30T19:23:21.378Z,63.50
2017-11-30T19:25:49.688Z,63.30
2017-11-30T19:28:17.962Z,63.10
2017-11-30T19:30:46.691Z,63.50
2017-11-30T19:33:14.602Z,63.50
2017-11-30T19:35:42.908Z,63.30
2017-11-30T19:38:11.239Z,63.20
2017-11-30T19:40:39.573Z,63.00
2017-11-30T19:43:07.869Z,62.90
2017-11-30T19:45:36.312Z,62.80
2017-11-30T19:48:04.621Z,62.70
2017-11-30T19:50:33.734Z,62.80
2017-11-30T19:53:02.390Z,62.80
2017-11-30T19:55:30.915Z,62.10
2017-11-30T19:57:59.541Z,61.90
2017-11-30T20:00:27.992Z,62.10
2017-11-30T20:02:55.900Z,62.30
2017-11-30T20:05:25.181Z,62.20
2017-11-30T20:07:52.765Z,62.20
2017-11-30T20:10:21.046Z,62.10
2017-11-30T20:12:49.438Z,62.10
2017-11-30T20:15:17.760Z,62.30
2017-11-30T20:17:46.530Z,62.20
2017-11-30T20:20:14.481Z,62.20
2017-11-30T20:22:42.807Z,62.30
2017-11-30T20:25:11.230Z,62.00
2017-11-30T20:27:39.534Z,62.00
2017-11-30T20:30:08.130Z,62.10
2017-11-30T20:32:36.093Z,62.10
2017-11-30T20:35:04.916Z,62.10
2017-11-30T20:37:32.849Z,62.30
2017-11-30T20:40:01.143Z,62.20
2017-11-30T20:42:29.475Z,62.20
2017-11-30T20:44:57.923Z,62.30
2017-11-30T20:47:29.486Z,62.20
2017-11-30T20:49:57.454Z,62.20
2017-11-30T20:52:25.830Z,62.10
2017-11-30T20:54:54.103Z,62.10
2017-11-30T20:57:22.419Z,62.30
2017-11-30T20:59:50.708Z,62.20
2017-11-30T21:02:19.037Z,62.50
2017-11-30T21:04:48.351Z,62.60
2017-11-30T21:07:16.653Z,63.00
2017-11-30T21:09:44.530Z,62.30
2017-11-30T21:12:12.480Z,62.50
2017-11-30T21:14:40.759Z,62.50
2017-11-30T21:17:09.062Z,62.30
2017-11-30T21:19:37.384Z,62.30
2017-11-30T21:22:05.689Z,62.30
2017-11-30T21:24:33.968Z,62.50
2017-11-30T21:27:02.320Z,62.50
2017-11-30T21:29:31.334Z,62.10
2017-11-30T21:31:59.267Z,61.90
2017-11-30T21:34:27.559Z,61.80
2017-11-30T21:36:55.858Z,62.00
2017-11-30T21:39:24.154Z,62.00
2017-11-30T21:41:53.278Z,61.80
2017-11-30T21:44:21.040Z,61.80
2017-11-30T21:46:48.950Z,62.00
2017-11-30T21:49:16.525Z,61.90
2017-11-30T21:51:44.434Z,61.90
2017-11-30T21:54:12.736Z,61.80
2017-11-30T21:56:41.028Z,62.00
2017-11-30T21:59:09.349Z,61.90
2017-11-30T22:01:37.679Z,61.90
2017-11-30T22:04:06.043Z,61.80
2017-11-30T22:06:34.351Z,61.90
2017-11-30T22:09:02.872Z,61.80
2017-11-30T22:11:31.171Z,61.80
2017-11-30T22:13:59.900Z,61.80
2017-11-30T22:16:27.826Z,61.60
2017-11-30T22:18:56.170Z,61.60
2017-11-30T22:21:24.445Z,62.50
2017-11-30T22:23:53.617Z,62.20
2017-11-30T22:26:21.130Z,62.30
2017-11-30T22:28:49.453Z,62.10
2017-11-30T22:31:17.749Z,61.80
2017-11-30T22:33:46.987Z,61.50
2017-11-30T22:36:14.497Z,61.40
2017-11-30T22:38:42.807Z,61.30
2017-11-30T22:41:11.097Z,61.00
2017-11-30T22:43:38.633Z,61.10
2017-11-30T22:46:06.626Z,61.40
2017-11-30T22:48:34.938Z,58.80
2017-11-30T22:51:03.966Z,61.30
2017-11-30T22:53:31.579Z,61.00
2017-11-30T22:55:59.877Z,60.90
2017-11-30T22:58:28.184Z,61.00
2017-11-30T23:00:56.497Z,61.30
2017-11-30T23:03:25.048Z,61.10
2017-11-30T23:05:53.346Z,61.10
2017-11-30T23:08:21.855Z,60.90
2017-11-30T23:10:49.802Z,60.90
2017-11-30T23:13:17.326Z,60.70
2017-11-30T23:15:45.257Z,60.70
2017-11-30T23:18:13.581Z,60.90
2017-11-30T23:20:41.885Z,61.00
2017-11-30T23:23:10.198Z,61.10
2017-11-30T23:25:39.284Z,59.90
2017-11-30T23:28:07.577Z,60.90
2017-11-30T23:30:35.985Z,60.70
2017-11-30T23:33:04.462Z,60.80
2017-11-30T23:35:32.353Z,61.10
2017-11-30T23:38:00.265Z,60.90
2017-11-30T23:40:28.572Z,61.00
2017-11-30T23:42:56.871Z,61.10
2017-11-30T23:45:25.181Z,61.40
2017-11-30T23:47:52.693Z,60.90
2017-11-30T23:50:20.631Z,60.90
2017-11-30T23:52:48.911Z,60.90
2017-11-30T23:55:17.229Z,59.10
2017-11-30T23:57:45.828Z,60.70
